N83AJ KBKV-KSRQ
Flight info
| Callsign | N83AJ |
|---|---|
| Flight time | 0h 27m |
| Altitude | 10000 |
| Route | LAFAL/N0252F090 |
| Aircraft | PC12/L-SDFGRWY/S |
Departure
| Time | 2026-05-04 18:54 |
|---|---|
| Airport | Brooksville–Tampa Bay Regional Airport (KBKV) |
Arrival
| Time | 2026-05-04 19:21 |
|---|---|
| Airport | Sarasota Bradenton International Airport (KSRQ) |
| Time | Latitude | Longitude | Altitude | Speed | Heading |
|---|---|---|---|---|---|
| 2026-05-04 18:36 | 28.47473 | -82.44215 | 78 ft | 0 kts | 360° |
| 2026-05-04 18:50 | 28.47482 | -82.44226 | 78 ft | 7 kts | 261° |
| 2026-05-04 18:50 | 28.47479 | -82.44339 | 77 ft | 21 kts | 284° |
| 2026-05-04 18:50 | 28.47549 | -82.44389 | 76 ft | 14 kts | 294° |
| 2026-05-04 18:50 | 28.47605 | -82.44528 | 72 ft | 18 kts | 276° |
| 2026-05-04 18:51 | 28.47495 | -82.44605 | 74 ft | 24 kts | 206° |
| 2026-05-04 18:51 | 28.47308 | -82.44708 | 73 ft | 35 kts | 206° |
| 2026-05-04 18:51 | 28.47089 | -82.44833 | 70 ft | 36 kts | 210° |
| 2026-05-04 18:51 | 28.46851 | -82.44960 | 70 ft | 39 kts | 207° |
| 2026-05-04 18:52 | 28.46717 | -82.45027 | 74 ft | 30 kts | 218° |
| 2026-05-04 18:52 | 28.46536 | -82.45134 | 77 ft | 24 kts | 202° |
| 2026-05-04 18:52 | 28.46411 | -82.45204 | 79 ft | 13 kts | 209° |
| 2026-05-04 18:52 | 28.46398 | -82.45233 | 81 ft | 1 kts | 290° |
| 2026-05-04 18:53 | 28.46399 | -82.45236 | 81 ft | 2 kts | 295° |
| 2026-05-04 18:53 | 28.46463 | -82.45264 | 77 ft | 20 kts | 33° |
| 2026-05-04 18:53 | 28.46595 | -82.45186 | 75 ft | 34 kts | 25° |
| 2026-05-04 18:53 | 28.46959 | -82.44984 | 67 ft | 81 kts | 25° |
| 2026-05-04 18:54 | 28.47539 | -82.44660 | 188 ft | 97 kts | 25° |
| 2026-05-04 18:54 | 28.48205 | -82.44415 | 447 ft | 107 kts | 5° |
| 2026-05-04 18:54 | 28.49026 | -82.44359 | 629 ft | 129 kts | 4° |
| 2026-05-04 18:54 | 28.49964 | -82.44294 | 912 ft | 138 kts | 6° |
| 2026-05-04 18:55 | 28.50981 | -82.44272 | 1183 ft | 157 kts | 5° |
| 2026-05-04 18:55 | 28.53024 | -82.45242 | 1773 ft | 187 kts | 295° |
| 2026-05-04 18:55 | 28.53334 | -82.46604 | 2445 ft | 171 kts | 283° |
| 2026-05-04 18:56 | 28.53588 | -82.47945 | 2897 ft | 178 kts | 286° |
| 2026-05-04 18:56 | 28.53791 | -82.49280 | 3531 ft | 164 kts | 281° |
| 2026-05-04 18:56 | 28.54010 | -82.50550 | 4050 ft | 161 kts | 284° |
| 2026-05-04 18:56 | 28.54248 | -82.51762 | 4707 ft | 156 kts | 284° |
| 2026-05-04 18:57 | 28.54492 | -82.52990 | 5218 ft | 160 kts | 283° |
| 2026-05-04 18:57 | 28.54720 | -82.54220 | 5819 ft | 159 kts | 276° |
| 2026-05-04 18:57 | 28.54283 | -82.55294 | 6420 ft | 154 kts | 210° |
| 2026-05-04 18:57 | 28.53285 | -82.55714 | 6962 ft | 154 kts | 195° |
| 2026-05-04 18:58 | 28.52259 | -82.56075 | 7507 ft | 155 kts | 199° |
| 2026-05-04 18:58 | 28.51249 | -82.56495 | 8074 ft | 154 kts | 203° |
| 2026-05-04 18:58 | 28.50259 | -82.56932 | 8664 ft | 152 kts | 204° |
| 2026-05-04 18:58 | 28.49266 | -82.57376 | 9188 ft | 155 kts | 205° |
| 2026-05-04 18:59 | 28.48271 | -82.57824 | 9764 ft | 155 kts | 205° |
| 2026-05-04 18:59 | 28.47223 | -82.58301 | 9984 ft | 178 kts | 205° |
| 2026-05-04 18:59 | 28.45971 | -82.58872 | 9985 ft | 207 kts | 204° |
| 2026-05-04 18:59 | 28.44568 | -82.59503 | 9990 ft | 225 kts | 204° |
| 2026-05-04 19:00 | 28.43068 | -82.60176 | 9984 ft | 237 kts | 204° |
| 2026-05-04 19:00 | 28.41512 | -82.60874 | 9982 ft | 243 kts | 204° |
| 2026-05-04 19:00 | 28.39933 | -82.61583 | 9983 ft | 245 kts | 204° |
| 2026-05-04 19:00 | 28.38340 | -82.62299 | 9983 ft | 247 kts | 204° |
| 2026-05-04 19:01 | 28.36742 | -82.63018 | 9976 ft | 248 kts | 204° |
| 2026-05-04 19:01 | 28.35143 | -82.63736 | 10009 ft | 247 kts | 204° |
| 2026-05-04 19:01 | 28.33539 | -82.64456 | 10008 ft | 248 kts | 204° |
| 2026-05-04 19:01 | 28.31933 | -82.65177 | 10008 ft | 248 kts | 204° |
| 2026-05-04 19:02 | 28.30325 | -82.65899 | 10009 ft | 249 kts | 204° |
| 2026-05-04 19:02 | 28.28714 | -82.66622 | 10009 ft | 249 kts | 204° |
| 2026-05-04 19:02 | 28.27102 | -82.67345 | 10009 ft | 249 kts | 204° |
| 2026-05-04 19:02 | 28.25494 | -82.68066 | 10009 ft | 249 kts | 204° |
| 2026-05-04 19:03 | 28.23904 | -82.68774 | 10008 ft | 248 kts | 202° |
| 2026-05-04 19:03 | 28.22184 | -82.68955 | 10002 ft | 253 kts | 177° |
| 2026-05-04 19:03 | 28.20432 | -82.68680 | 10005 ft | 253 kts | 176° |
| 2026-05-04 19:03 | 28.18681 | -82.68556 | 10006 ft | 252 kts | 182° |
| 2026-05-04 19:04 | 28.16927 | -82.68594 | 10005 ft | 252 kts | 184° |
| 2026-05-04 19:04 | 28.15170 | -82.68631 | 10005 ft | 253 kts | 183° |
| 2026-05-04 19:04 | 28.13411 | -82.68628 | 10006 ft | 252 kts | 182° |
| 2026-05-04 19:04 | 28.11653 | -82.68620 | 10000 ft | 252 kts | 182° |
| 2026-05-04 19:05 | 28.09898 | -82.68621 | 10000 ft | 252 kts | 183° |
| 2026-05-04 19:05 | 28.08139 | -82.68625 | 10000 ft | 253 kts | 183° |
| 2026-05-04 19:05 | 28.06378 | -82.68626 | 10001 ft | 253 kts | 183° |
| 2026-05-04 19:05 | 28.04619 | -82.68627 | 10000 ft | 253 kts | 183° |
| 2026-05-04 19:06 | 28.02861 | -82.68628 | 10000 ft | 253 kts | 183° |
| 2026-05-04 19:06 | 28.01102 | -82.68630 | 10000 ft | 253 kts | 182° |
| 2026-05-04 19:06 | 27.99345 | -82.68632 | 10001 ft | 253 kts | 183° |
| 2026-05-04 19:06 | 27.97580 | -82.68632 | 10001 ft | 254 kts | 182° |
| 2026-05-04 19:07 | 27.95837 | -82.68634 | 10000 ft | 253 kts | 183° |
| 2026-05-04 19:07 | 27.94076 | -82.68635 | 10000 ft | 253 kts | 183° |
| 2026-05-04 19:07 | 27.92318 | -82.68636 | 10003 ft | 252 kts | 183° |
| 2026-05-04 19:07 | 27.90559 | -82.68638 | 10001 ft | 253 kts | 183° |
| 2026-05-04 19:08 | 27.88798 | -82.68639 | 10003 ft | 253 kts | 183° |
| 2026-05-04 19:08 | 27.87032 | -82.68639 | 10001 ft | 254 kts | 183° |
| 2026-05-04 19:08 | 27.85260 | -82.68642 | 9994 ft | 253 kts | 183° |
| 2026-05-04 19:08 | 27.83466 | -82.68646 | 9632 ft | 262 kts | 182° |
| 2026-05-04 19:09 | 27.81639 | -82.68647 | 9141 ft | 259 kts | 182° |
| 2026-05-04 19:09 | 27.79854 | -82.68645 | 8761 ft | 256 kts | 182° |
| 2026-05-04 19:09 | 27.78083 | -82.68648 | 8393 ft | 258 kts | 181° |
| 2026-05-04 19:09 | 27.76285 | -82.68650 | 8023 ft | 258 kts | 182° |
| 2026-05-04 19:10 | 27.74492 | -82.68651 | 7705 ft | 255 kts | 181° |
| 2026-05-04 19:10 | 27.72727 | -82.68652 | 7461 ft | 254 kts | 182° |
| 2026-05-04 19:10 | 27.70948 | -82.68652 | 7224 ft | 257 kts | 181° |
| 2026-05-04 19:10 | 27.69152 | -82.68654 | 6986 ft | 258 kts | 181° |
| 2026-05-04 19:11 | 27.67358 | -82.68656 | 6754 ft | 258 kts | 181° |
| 2026-05-04 19:11 | 27.65562 | -82.68658 | 6518 ft | 258 kts | 180° |
| 2026-05-04 19:11 | 27.63766 | -82.68659 | 6273 ft | 258 kts | 180° |
| 2026-05-04 19:11 | 27.61979 | -82.68660 | 6030 ft | 255 kts | 180° |
| 2026-05-04 19:12 | 27.60226 | -82.68661 | 5984 ft | 249 kts | 179° |
| 2026-05-04 19:12 | 27.56755 | -82.68663 | 5983 ft | 249 kts | 179° |
| 2026-05-04 19:12 | 27.55041 | -82.68665 | 5984 ft | 249 kts | 179° |
| 2026-05-04 19:13 | 27.53311 | -82.68666 | 5984 ft | 249 kts | 179° |
| 2026-05-04 19:13 | 27.51578 | -82.68667 | 5984 ft | 249 kts | 179° |
| 2026-05-04 19:13 | 27.49844 | -82.68669 | 5984 ft | 249 kts | 179° |
| 2026-05-04 19:13 | 27.48111 | -82.68669 | 5985 ft | 249 kts | 180° |
| 2026-05-04 19:14 | 27.46378 | -82.68673 | 5991 ft | 250 kts | 179° |
| 2026-05-04 19:14 | 27.44642 | -82.68674 | 5990 ft | 249 kts | 179° |
| 2026-05-04 19:14 | 27.42904 | -82.68673 | 5990 ft | 249 kts | 179° |
| 2026-05-04 19:14 | 27.41187 | -82.68675 | 5979 ft | 244 kts | 179° |
| 2026-05-04 19:15 | 27.39482 | -82.68678 | 5827 ft | 246 kts | 179° |
| 2026-05-04 19:15 | 27.37769 | -82.68679 | 5550 ft | 246 kts | 179° |
| 2026-05-04 19:15 | 27.36055 | -82.68680 | 5236 ft | 246 kts | 178° |
| 2026-05-04 19:15 | 27.34352 | -82.68681 | 4915 ft | 243 kts | 176° |
| 2026-05-04 19:16 | 27.32719 | -82.68685 | 4593 ft | 224 kts | 176° |
| 2026-05-04 19:16 | 27.31215 | -82.68682 | 4281 ft | 206 kts | 174° |
| 2026-05-04 19:16 | 27.30018 | -82.68109 | 3883 ft | 179 kts | 130° |
| 2026-05-04 19:16 | 27.29703 | -82.66903 | 3459 ft | 158 kts | 77° |
| 2026-05-04 19:17 | 27.30011 | -82.65757 | 3102 ft | 153 kts | 75° |
| 2026-05-04 19:17 | 27.30310 | -82.64647 | 2822 ft | 150 kts | 70° |
| 2026-05-04 19:17 | 27.30681 | -82.63585 | 2377 ft | 142 kts | 65° |
| 2026-05-04 19:17 | 27.31232 | -82.62675 | 1923 ft | 144 kts | 46° |
| 2026-05-04 19:18 | 27.31943 | -82.61987 | 1742 ft | 129 kts | 40° |
| 2026-05-04 19:18 | 27.32612 | -82.61386 | 1575 ft | 116 kts | 41° |
| 2026-05-04 19:18 | 27.33222 | -82.60846 | 1413 ft | 103 kts | 41° |
| 2026-05-04 19:18 | 27.33756 | -82.60377 | 1199 ft | 99 kts | 40° |
| 2026-05-04 19:19 | 27.34287 | -82.59916 | 1212 ft | 98 kts | 39° |
| 2026-05-04 19:19 | 27.34864 | -82.59408 | 1089 ft | 108 kts | 38° |
| 2026-05-04 19:19 | 27.35489 | -82.58854 | 927 ft | 112 kts | 39° |
| 2026-05-04 19:19 | 27.36063 | -82.58350 | 772 ft | 97 kts | 41° |
| 2026-05-04 19:20 | 27.36575 | -82.57901 | 638 ft | 91 kts | 41° |
| 2026-05-04 19:20 | 27.37075 | -82.57464 | 495 ft | 91 kts | 40° |
| 2026-05-04 19:20 | 27.37579 | -82.57048 | 529 ft | 94 kts | 36° |
| 2026-05-04 19:20 | 27.38085 | -82.56568 | 361 ft | 93 kts | 41° |
| 2026-05-04 19:21 | 27.38586 | -82.56131 | 228 ft | 87 kts | 40° |
| 2026-05-04 19:21 | 27.39035 | -82.55736 | 71 ft | 78 kts | 39° |
| 2026-05-04 19:21 | 27.39448 | -82.55377 | 28 ft | 69 kts | 40° |
| 2026-05-04 19:21 | 27.39752 | -82.55108 | 32 ft | 44 kts | 39° |
| 2026-05-04 19:22 | 27.39968 | -82.54916 | 33 ft | 38 kts | 40° |
| 2026-05-04 19:22 | 27.40001 | -82.54788 | 33 ft | 22 kts | 176° |
| 2026-05-04 19:22 | 27.39958 | -82.54787 | 32 ft | 0 kts | 186° |
| 2026-05-04 19:22 | 27.39956 | -82.54787 | 32 ft | 2 kts | 186° |
| 2026-05-04 19:23 | 27.39914 | -82.54809 | 32 ft | 12 kts | 214° |
| 2026-05-04 19:23 | 27.39853 | -82.54862 | 32 ft | 14 kts | 217° |
| 2026-05-04 19:23 | 27.39752 | -82.54948 | 33 ft | 23 kts | 217° |
| 2026-05-04 19:23 | 27.39621 | -82.55062 | 30 ft | 24 kts | 214° |
| 2026-05-04 19:24 | 27.39519 | -82.55131 | 30 ft | 15 kts | 147° |
| 2026-05-04 19:24 | 27.39504 | -82.54999 | 29 ft | 21 kts | 94° |
| 2026-05-04 19:24 | 27.39500 | -82.54892 | 30 ft | 13 kts | 114° |
| 2026-05-04 19:24 | 27.39407 | -82.54876 | 29 ft | 11 kts | 180° |
| 2026-05-04 19:25 | 27.39406 | -82.54810 | 31 ft | 12 kts | 357° |
| 2026-05-04 19:25 | 27.39441 | -82.54835 | 30 ft | 4 kts | 258° |
| 2026-05-04 19:25 | 27.39441 | -82.54836 | 30 ft | 0 kts | 255° |